Time;durP1;ratioP1;P1;durP2;ratioP2;P2;SDS_P1;SDS_P2;PMS_P1;PMS_P2;Temp;Humidity;BMP_temperature;BMP_pressure;BME280_temperature;BME280_humidity;BME280_pressure;Samples;Min_cycle;Max_cycle;Signal;HPM_P1;HPM_P2
2022/05/14 00:01:12;;;;;;;3.95;2.13;;;13.50;48.80;;;;;;4958701;29;20556;-77
2022/05/14 00:03:39;;;;;;;2.95;2.47;;;13.40;49.10;;;;;;4958431;28;20296;-77
2022/05/14 00:06:09;;;;;;;2.97;2.00;;;13.40;49.00;;;;;;4957152;28;20321;-77
2022/05/14 00:08:38;;;;;;;3.85;2.30;;;13.40;49.20;;;;;;4957315;28;20538;-77
2022/05/14 00:13:51;;;;;;;2.22;2.05;;;13.30;49.50;;;;;;4955791;29;20217;-76
2022/05/14 00:16:19;;;;;;;4.10;2.03;;;13.20;49.70;;;;;;4958117;28;20762;-76
2022/05/14 00:18:46;;;;;;;2.72;2.38;;;13.10;50.30;;;;;;4946589;28;20277;-76
2022/05/14 00:21:14;;;;;;;3.40;2.63;;;13.10;51.00;;;;;;4938317;29;20241;-76
2022/05/14 00:23:42;;;;;;;2.80;2.50;;;13.00;51.20;;;;;;4938726;29;20202;-76
2022/05/14 00:26:09;;;;;;;5.03;2.58;;;13.00;51.80;;;;;;4939434;29;20234;-75
2022/05/14 00:28:36;;;;;;;6.72;2.55;;;13.00;52.00;;;;;;4953647;29;20227;-76
2022/05/14 00:31:03;;;;;;;5.20;2.40;;;13.00;52.00;;;;;;4946370;29;20301;-76
2022/05/14 00:33:30;;;;;;;4.53;1.95;;;12.90;51.90;;;;;;4966119;29;20277;-77
2022/05/14 00:35:57;;;;;;;3.25;2.15;;;12.90;51.90;;;;;;4957425;28;20235;-76
2022/05/14 00:38:24;;;;;;;5.75;2.33;;;12.90;51.90;;;;;;4938890;29;20214;-76
2022/05/14 00:40:58;;;;;;;4.32;2.47;;;12.90;51.90;;;;;;4947047;29;20680;-76
2022/05/14 00:43:26;;;;;;;3.67;2.08;;;12.80;52.40;;;;;;4957232;28;20315;-77
2022/05/14 00:45:56;;;;;;;2.63;2.20;;;12.80;52.30;;;;;;4946960;28;20234;-76
2022/05/14 00:48:24;;;;;;;2.95;2.20;;;12.80;51.80;;;;;;4944908;29;20278;-76
2022/05/14 00:50:56;;;;;;;4.85;2.00;;;12.70;51.80;;;;;;4942163;29;20641;-76
2022/05/14 00:53:26;;;;;;;5.22;2.15;;;12.70;51.80;;;;;;4943593;29;20206;-77
2022/05/14 00:55:57;;;;;;;4.55;2.40;;;12.70;51.80;;;;;;4956813;28;20326;-76
2022/05/14 00:58:32;;;;;;;3.85;2.05;;;12.60;52.30;;;;;;4956089;28;20237;-75
2022/05/14 01:00:59;;;;;;;3.40;2.65;;;12.60;53.10;;;;;;4956928;28;20241;-76
2022/05/14 01:03:26;;;;;;;2.05;1.90;;;12.50;53.40;;;;;;4955982;28;20233;-76
2022/05/14 01:05:54;;;;;;;4.50;2.67;;;12.50;53.40;;;;;;4957904;28;20285;-76
2022/05/14 01:08:20;;;;;;;4.82;2.17;;;12.50;53.30;;;;;;4952185;28;20203;-76
2022/05/14 01:10:48;;;;;;;3.75;1.55;;;12.50;53.00;;;;;;4949376;29;20213;-77
2022/05/14 01:13:17;;;;;;;3.55;1.92;;;12.60;52.40;;;;;;4953506;28;20203;-77
2022/05/14 01:15:48;;;;;;;2.33;1.90;;;12.70;51.80;;;;;;4937768;29;20270;-76
2022/05/14 01:18:17;;;;;;;3.20;1.90;;;12.70;51.80;;;;;;4940737;29;20284;-77
2022/05/14 01:20:48;;;;;;;2.10;1.63;;;12.60;51.70;;;;;;4936933;28;20242;-76
2022/05/14 01:23:26;;;;;;;2.95;2.10;;;12.60;51.70;;;;;;4940123;29;20296;-75
2022/05/14 01:28:53;;;;;;;2.55;2.08;;;12.60;51.00;;;;;;4957871;29;20212;-75
2022/05/14 01:31:20;;;;;;;2.13;1.88;;;12.60;51.60;;;;;;4957594;28;20209;-75
2022/05/14 01:33:47;;;;;;;3.47;1.80;;;12.60;51.70;;;;;;4950099;28;20210;-75
2022/05/14 01:36:14;;;;;;;2.00;1.33;;;12.60;51.70;;;;;;4938684;29;20235;-75
2022/05/14 01:38:41;;;;;;;2.65;1.77;;;12.60;51.70;;;;;;4941220;29;20206;-76
2022/05/14 01:41:10;;;;;;;3.80;2.28;;;12.50;52.20;;;;;;4954799;29;20571;-76
2022/05/14 01:43:38;;;;;;;1.80;1.70;;;12.40;52.20;;;;;;4959220;28;20209;-75
2022/05/14 01:46:05;;;;;;;2.00;1.80;;;12.40;53.20;;;;;;4939143;29;20258;-76
2022/05/14 01:48:32;;;;;;;4.72;2.22;;;12.40;53.40;;;;;;4954561;29;20669;-75
2022/05/14 01:50:59;;;;;;;5.18;1.92;;;12.30;53.70;;;;;;4939409;28;20210;-77
2022/05/14 01:53:25;;;;;;;4.13;1.90;;;12.20;54.80;;;;;;4952537;29;20225;-76
2022/05/14 01:55:53;;;;;;;1.65;1.55;;;12.20;55.60;;;;;;4956336;28;20246;-76
2022/05/14 01:58:39;;;;;;;1.92;1.50;;;12.20;55.10;;;;;;4956004;28;20618;-77
2022/05/14 02:01:11;;;;;;;2.25;1.90;;;12.20;54.90;;;;;;4956370;28;20213;-77
2022/05/14 02:03:39;;;;;;;3.63;2.28;;;12.10;54.90;;;;;;4940458;28;20217;-77
2022/05/14 02:06:06;;;;;;;5.75;2.20;;;12.10;55.10;;;;;;4936568;29;20233;-76
2022/05/14 02:08:33;;;;;;;4.93;2.00;;;12.00;55.40;;;;;;4936285;29;20221;-76
2022/05/14 02:11:00;;;;;;;2.13;1.88;;;11.90;55.80;;;;;;4939385;29;20570;-77
2022/05/14 02:13:29;;;;;;;2.50;2.00;;;11.90;56.30;;;;;;4935823;29;20282;-76
2022/05/14 02:15:56;;;;;;;3.10;2.30;;;11.80;56.20;;;;;;4936031;29;20289;-75
2022/05/14 02:18:24;;;;;;;11.13;2.05;;;11.80;56.70;;;;;;4936085;29;20207;-75
2022/05/14 02:20:51;;;;;;;2.15;1.90;;;11.80;56.80;;;;;;4936652;29;20226;-76
2022/05/14 02:23:18;;;;;;;2.60;2.40;;;11.70;57.40;;;;;;4942113;29;20198;-76
2022/05/14 02:25:45;;;;;;;3.00;1.85;;;11.70;57.40;;;;;;4955256;28;20225;-76
2022/05/14 02:28:12;;;;;;;3.50;2.08;;;11.70;57.60;;;;;;4950299;28;20567;-76
2022/05/14 02:30:41;;;;;;;4.35;2.53;;;11.60;58.20;;;;;;4936746;29;20202;-76
2022/05/14 02:33:08;;;;;;;3.33;2.63;;;11.70;58.60;;;;;;4937247;29;20620;-76
2022/05/14 02:35:34;;;;;;;2.00;1.80;;;11.60;58.00;;;;;;4936099;29;20227;-76
2022/05/14 02:38:01;;;;;;;2.00;1.80;;;11.60;58.20;;;;;;4935916;29;20202;-76
2022/05/14 02:40:29;;;;;;;2.75;1.85;;;11.50;58.60;;;;;;4934559;29;20702;-76
2022/05/14 02:42:56;;;;;;;3.85;2.28;;;11.50;59.20;;;;;;4943895;28;20233;-76
2022/05/14 02:45:24;;;;;;;2.20;1.95;;;11.40;60.00;;;;;;4935965;29;20236;-76
2022/05/14 02:47:52;;;;;;;2.65;2.05;;;11.40;60.00;;;;;;4963398;29;20216;-76
2022/05/14 02:50:20;;;;;;;2.03;1.83;;;11.40;60.00;;;;;;4972517;28;20225;-76
2022/05/14 02:52:46;;;;;;;3.83;2.00;;;11.30;59.90;;;;;;4971638;28;20212;-76
2022/05/14 02:55:13;;;;;;;4.82;2.53;;;11.30;60.20;;;;;;4969039;28;20500;-76
2022/05/14 02:57:40;;;;;;;2.00;1.80;;;11.20;60.60;;;;;;4961903;28;20244;-77
2022/05/14 03:00:11;;;;;;;2.70;2.03;;;11.10;61.30;;;;;;4946728;28;20232;-76
2022/05/14 03:02:38;;;;;;;3.22;2.28;;;11.00;61.80;;;;;;4940169;29;20572;-77
2022/05/14 03:05:08;;;;;;;2.55;2.00;;;11.00;62.10;;;;;;4951326;29;20210;-76
2022/05/14 03:07:35;;;;;;;4.45;2.40;;;10.90;62.50;;;;;;4958708;28;20217;-76
2022/05/14 03:10:02;;;;;;;2.50;2.13;;;11.00;63.10;;;;;;4957264;28;20293;-76
2022/05/14 03:12:29;;;;;;;3.40;2.25;;;11.00;63.40;;;;;;4958409;28;20210;-76
2022/05/14 03:14:55;;;;;;;2.22;2.03;;;11.00;63.70;;;;;;4949051;28;20209;-76
2022/05/14 03:17:22;;;;;;;2.50;2.10;;;11.00;63.60;;;;;;4945993;29;20218;-77
2022/05/14 03:19:50;;;;;;;2.00;1.90;;;11.00;63.30;;;;;;4959494;28;20237;-76
2022/05/14 03:22:18;;;;;;;3.17;1.90;;;10.90;63.10;;;;;;4948319;28;20213;-77
2022/05/14 03:24:45;;;;;;;2.55;1.90;;;10.90;62.90;;;;;;4942255;29;20305;-77
2022/05/14 03:27:13;;;;;;;2.47;1.95;;;10.90;62.40;;;;;;4957986;29;20316;-76
2022/05/14 03:29:41;;;;;;;3.88;1.95;;;10.90;62.50;;;;;;4963491;28;20680;-77
2022/05/14 03:32:09;;;;;;;2.38;1.90;;;10.80;63.20;;;;;;4959494;28;20826;-76
2022/05/14 03:34:37;;;;;;;2.50;1.60;;;10.80;63.70;;;;;;4959488;28;20253;-76
2022/05/14 03:37:04;;;;;;;2.47;2.17;;;10.80;63.10;;;;;;4940164;29;20230;-76
2022/05/14 03:39:33;;;;;;;3.15;2.13;;;10.80;63.00;;;;;;4939798;29;20237;-77
2022/05/14 03:42:00;;;;;;;2.55;2.05;;;10.70;63.30;;;;;;4940875;29;20746;-76
2022/05/14 03:44:27;;;;;;;5.07;1.63;;;10.70;63.50;;;;;;4940929;29;20245;-76
2022/05/14 03:46:54;;;;;;;3.55;1.80;;;10.70;63.80;;;;;;4964564;29;20229;-77
2022/05/14 03:49:21;;;;;;;6.72;2.08;;;10.70;63.20;;;;;;4956082;28;20249;-75
2022/05/14 03:51:48;;;;;;;2.63;2.00;;;10.70;63.30;;;;;;4947311;29;20214;-76
2022/05/14 03:54:15;;;;;;;3.30;1.42;;;10.70;63.60;;;;;;4958788;29;20209;-76
2022/05/14 03:56:43;;;;;;;2.03;1.80;;;10.70;63.50;;;;;;4974264;28;20272;-77
2022/05/14 03:59:10;;;;;;;2.00;1.70;;;10.80;64.40;;;;;;4972808;28;20217;-76
2022/05/14 04:01:37;;;;;;;5.93;2.60;;;10.80;63.70;;;;;;4973579;28;20297;-75
2022/05/14 04:04:04;;;;;;;3.67;2.60;;;10.80;66.40;;;;;;4972587;28;20236;-75
2022/05/14 04:06:31;;;;;;;2.85;2.60;;;10.80;68.30;;;;;;4966102;28;20320;-75
2022/05/14 04:08:59;;;;;;;4.93;2.55;;;10.70;68.30;;;;;;4957102;28;20803;-75
2022/05/14 04:11:26;;;;;;;2.95;2.00;;;10.60;69.40;;;;;;4957271;28;20205;-76
2022/05/14 04:13:56;;;;;;;4.30;2.30;;;10.60;70.20;;;;;;4956905;28;20647;-76
2022/05/14 04:16:23;;;;;;;4.82;2.25;;;10.60;70.60;;;;;;4952653;28;20230;-76
2022/05/14 04:18:49;;;;;;;3.13;2.83;;;10.60;71.40;;;;;;4937752;29;20297;-76
2022/05/14 04:21:16;;;;;;;7.00;3.22;;;10.70;70.70;;;;;;4941076;29;20229;-76
2022/05/14 04:23:43;;;;;;;2.65;2.10;;;10.80;70.40;;;;;;4957250;28;20210;-76
2022/05/14 04:26:10;;;;;;;4.95;2.80;;;11.00;69.40;;;;;;4956184;28;20222;-77
2022/05/14 04:28:37;;;;;;;3.28;2.70;;;11.20;66.70;;;;;;4958300;28;20214;-75
2022/05/14 04:31:05;;;;;;;2.97;2.20;;;11.30;66.00;;;;;;4959564;28;20298;-75
2022/05/14 04:33:32;;;;;;;3.33;2.38;;;11.40;64.40;;;;;;4965892;28;20210;-76
2022/05/14 04:35:59;;;;;;;6.93;2.10;;;11.40;63.80;;;;;;4969502;28;20222;-76
2022/05/14 04:38:26;;;;;;;3.25;2.00;;;11.60;63.30;;;;;;4958659;29;20238;-76
2022/05/14 04:40:53;;;;;;;2.70;2.10;;;11.70;62.30;;;;;;4941890;29;20322;-76
2022/05/14 04:43:20;;;;;;;4.60;2.00;;;11.90;61.00;;;;;;4945310;29;20202;-76
2022/05/14 04:45:47;;;;;;;3.20;1.70;;;12.50;60.90;;;;;;4958806;28;20260;-76
2022/05/14 04:48:15;;;;;;;4.63;1.50;;;13.30;55.70;;;;;;4961601;28;20209;-75
2022/05/14 04:50:45;;;;;;;4.70;1.50;;;14.40;51.70;;;;;;4962771;28;20202;-75
2022/05/14 04:53:13;;;;;;;4.20;1.60;;;15.40;46.30;;;;;;4957856;28;20482;-74
2022/05/14 04:55:40;;;;;;;2.17;1.60;;;16.30;42.20;;;;;;4945182;29;20460;-75
2022/05/14 04:58:08;;;;;;;1.93;1.60;;;17.00;39.90;;;;;;4943307;28;20462;-75
2022/05/14 05:00:35;;;;;;;2.87;1.20;;;17.70;37.50;;;;;;4938979;29;20483;-74
2022/05/14 05:03:17;;;;;;;6.03;1.60;;;18.30;36.60;;;;;;4939065;29;20450;-76
2022/05/14 05:05:45;;;;;;;2.63;1.40;;;18.70;35.50;;;;;;4941025;29;20478;-75
2022/05/14 05:08:12;;;;;;;4.47;1.80;;;19.10;33.70;;;;;;4964479;28;20450;-75
2022/05/14 05:10:39;;;;;;;6.87;1.60;;;19.10;33.30;;;;;;4947673;28;20516;-76
2022/05/14 05:13:10;;;;;;;1.60;1.50;;;19.20;32.70;;;;;;4950359;29;20458;-75
2022/05/14 05:15:37;;;;;;;2.70;1.73;;;18.10;35.10;;;;;;4950677;29;20493;-75
2022/05/14 05:18:05;;;;;;;1.57;1.43;;;17.30;36.30;;;;;;4939442;29;20973;-76
2022/05/14 05:20:32;;;;;;;2.67;1.67;;;17.30;36.30;;;;;;4950384;29;20581;-76
2022/05/14 05:23:00;;;;;;;3.60;1.33;;;18.20;35.20;;;;;;4955932;28;20439;-75
2022/05/14 05:25:27;;;;;;;3.13;1.50;;;19.10;32.80;;;;;;4955821;28;20456;-75
2022/05/14 05:27:54;;;;;;;4.60;1.77;;;19.80;31.30;;;;;;4955484;28;20495;-76
2022/05/14 05:30:21;;;;;;;1.50;1.40;;;20.10;29.80;;;;;;4955598;28;20442;-76
2022/05/14 05:32:48;;;;;;;1.80;1.20;;;20.10;30.00;;;;;;4955663;28;20474;-75
2022/05/14 05:35:15;;;;;;;1.70;1.47;;;20.20;29.70;;;;;;4955223;28;20549;-76
2022/05/14 05:37:42;;;;;;;2.80;1.20;;;20.30;29.10;;;;;;4956855;28;20540;-76
2022/05/14 05:40:12;;;;;;;1.60;1.30;;;20.40;29.20;;;;;;4945841;28;20856;-76
2022/05/14 05:42:39;;;;;;;2.13;1.23;;;20.30;29.10;;;;;;4954067;29;20444;-76
2022/05/14 05:45:07;;;;;;;2.10;1.63;;;20.60;29.30;;;;;;4956625;28;20833;-76
2022/05/14 05:47:34;;;;;;;2.97;1.37;;;21.10;28.90;;;;;;4956348;28;20487;-76
2022/05/14 05:50:00;;;;;;;2.50;1.80;;;21.50;28.00;;;;;;4955938;28;20534;-75
2022/05/14 05:52:27;;;;;;;2.30;2.10;;;21.40;27.90;;;;;;4955406;28;20463;-75
2022/05/14 05:57:41;;;;;;;1.60;1.40;;;21.60;27.70;;;;;;4965219;23;20594;-71
2022/05/14 06:00:12;;;;;;;2.10;1.37;;;21.60;27.10;;;;;;4954786;29;20449;-71
2022/05/14 06:02:39;;;;;;;3.33;1.50;;;21.50;27.60;;;;;;4959035;28;20434;-71
2022/05/14 06:05:07;;;;;;;3.27;1.13;;;21.40;27.80;;;;;;4962838;28;20512;-71
2022/05/14 06:07:33;;;;;;;2.20;2.00;;;21.30;27.80;;;;;;4946291;28;20482;-71
2022/05/14 06:10:01;;;;;;;3.37;1.60;;;21.10;27.80;;;;;;4942415;29;20551;-71
2022/05/14 06:12:28;;;;;;;2.93;1.40;;;21.30;27.70;;;;;;4937505;29;20435;-72
2022/05/14 06:14:56;;;;;;;2.00;1.37;;;21.70;27.80;;;;;;4936455;29;20977;-70
2022/05/14 06:17:23;;;;;;;2.50;1.40;;;21.70;26.80;;;;;;4936787;29;20879;-71
2022/05/14 06:19:50;;;;;;;3.33;1.40;;;21.50;27.40;;;;;;4938176;29;20448;-71
2022/05/14 06:22:17;;;;;;;2.73;1.30;;;21.20;27.10;;;;;;4936053;29;20908;-73
2022/05/14 06:24:44;;;;;;;4.17;1.50;;;21.00;27.70;;;;;;4935172;29;20459;-72
2022/05/14 06:27:10;;;;;;;4.53;1.50;;;20.60;28.30;;;;;;4934757;29;20482;-72
2022/05/14 06:29:37;;;;;;;1.80;1.53;;;20.60;28.60;;;;;;4934272;29;20443;-72
2022/05/14 06:32:06;;;;;;;2.67;1.43;;;20.90;28.20;;;;;;4934906;29;20546;-70
2022/05/14 06:34:33;;;;;;;3.03;1.33;;;21.20;28.10;;;;;;4935125;29;20540;-70
2022/05/14 06:37:00;;;;;;;3.87;1.43;;;21.10;28.10;;;;;;4917399;29;20480;-72
2022/05/14 06:39:28;;;;;;;4.10;1.20;;;21.10;28.10;;;;;;4916685;29;20437;-73
2022/05/14 06:41:54;;;;;;;3.80;1.50;;;20.90;28.50;;;;;;4935492;29;20466;-72
2022/05/14 06:44:21;;;;;;;2.63;1.90;;;20.60;29.30;;;;;;4936082;29;20546;-72
2022/05/14 06:46:48;;;;;;;2.10;1.40;;;20.40;29.20;;;;;;4936291;29;20449;-71
2022/05/14 06:49:16;;;;;;;2.80;1.90;;;19.70;29.50;;;;;;4936043;29;20505;-71
2022/05/14 06:51:43;;;;;;;3.97;2.60;;;19.00;31.50;;;;;;4934844;29;20433;-72
2022/05/14 06:54:11;;;;;;;3.50;2.00;;;18.50;32.00;;;;;;4934927;29;20461;-72
2022/05/14 06:56:41;;;;;;;4.77;1.60;;;18.00;33.70;;;;;;4935145;29;20478;-72
2022/05/14 06:59:08;;;;;;;2.70;1.47;;;17.70;34.50;;;;;;4934778;29;20721;-71
2022/05/14 07:01:38;;;;;;;4.20;1.73;;;17.60;35.40;;;;;;4936257;29;20475;-71
2022/05/14 07:06:54;;;;;;;11.47;2.60;;;17.50;36.50;;;;;;4918130;29;20534;-72
2022/05/14 07:09:23;;;;;;;2.87;1.40;;;17.50;36.50;;;;;;4917696;29;20433;-72
2022/05/14 07:11:52;;;;;;;3.80;1.90;;;17.50;36.50;;;;;;4936207;29;20461;-71
2022/05/14 07:14:20;;;;;;;2.10;1.63;;;17.50;36.40;;;;;;4936529;29;20515;-72
2022/05/14 07:16:48;;;;;;;4.00;1.80;;;17.50;36.00;;;;;;4935656;29;20567;-72
2022/05/14 07:19:16;;;;;;;4.10;1.80;;;17.40;36.40;;;;;;4936613;29;20433;-71
2022/05/14 07:21:45;;;;;;;1.60;1.50;;;17.40;36.40;;;;;;4938342;29;20496;-71
2022/05/14 07:24:15;;;;;;;2.27;1.60;;;17.50;36.50;;;;;;4936073;29;20925;-73
2022/05/14 07:26:44;;;;;;;3.20;1.43;;;17.50;36.50;;;;;;4935574;29;20480;-72
2022/05/14 07:29:13;;;;;;;4.77;1.73;;;17.60;36.60;;;;;;4935781;29;20542;-72
2022/05/14 07:31:39;;;;;;;3.03;1.43;;;17.60;36.60;;;;;;4936054;29;20873;-71
2022/05/14 07:34:08;;;;;;;2.67;1.50;;;17.60;36.60;;;;;;4936945;29;20457;-71
2022/05/14 07:36:45;;;;;;;2.30;1.77;;;17.70;36.70;;;;;;4935246;29;20560;-70
2022/05/14 07:39:14;;;;;;;4.40;1.70;;;17.80;36.80;;;;;;4934355;29;20465;-72
2022/05/14 07:41:44;;;;;;;1.83;1.73;;;18.00;36.90;;;;;;4936831;29;20468;-71
2022/05/14 07:44:16;;;;;;;8.87;2.47;;;18.10;35.90;;;;;;4937913;29;20977;-72
2022/05/14 07:46:45;;;;;;;4.63;2.50;;;18.20;35.80;;;;;;4938585;29;20483;-71
2022/05/14 07:49:14;;;;;;;3.00;1.70;;;18.20;36.20;;;;;;4939838;29;20464;-72
2022/05/14 07:51:41;;;;;;;3.10;1.83;;;18.20;35.80;;;;;;4942064;29;20458;-71
2022/05/14 07:54:08;;;;;;;2.83;1.63;;;18.30;35.80;;;;;;4943227;29;20433;-71
2022/05/14 07:56:38;;;;;;;3.73;1.60;;;18.40;35.20;;;;;;4955592;29;20465;-72
2022/05/14 07:59:05;;;;;;;4.40;1.60;;;18.40;35.20;;;;;;4961356;28;20497;-73
2022/05/14 08:01:32;;;;;;;2.67;2.00;;;18.40;34.20;;;;;;4961459;28;20493;-72
2022/05/14 08:03:59;;;;;;;5.63;2.43;;;18.50;34.20;;;;;;4953487;29;20440;-72
2022/05/14 08:06:25;;;;;;;4.03;2.07;;;18.70;34.40;;;;;;4942242;29;20513;-70
2022/05/14 08:08:54;;;;;;;2.93;1.83;;;18.90;33.20;;;;;;4941861;29;20461;-71
2022/05/14 08:11:21;;;;;;;3.00;1.80;;;18.90;32.30;;;;;;4940620;29;20458;-71
2022/05/14 08:13:50;;;;;;;3.60;1.60;;;18.90;32.60;;;;;;4938504;29;20458;-70
2022/05/14 08:16:17;;;;;;;3.23;1.77;;;18.80;31.80;;;;;;4937353;29;21004;-70
2022/05/14 08:18:44;;;;;;;1.60;1.43;;;18.90;32.70;;;;;;4937445;29;20474;-72
2022/05/14 08:26:39;;;;;;;5.07;2.27;;;19.30;29.80;;;;;;4938223;29;20489;-71
2022/05/14 08:29:08;;;;;;;1.77;1.40;;;19.40;31.00;;;;;;4933789;29;20552;-71
2022/05/14 08:31:35;;;;;;;8.43;1.90;;;19.50;31.90;;;;;;4950659;29;20549;-72
2022/05/14 08:34:02;;;;;;;1.57;1.47;;;19.60;30.40;;;;;;4953357;28;20959;-71
2022/05/14 08:36:29;;;;;;;3.60;1.97;;;19.70;29.40;;;;;;4922869;29;20548;-74
2022/05/14 08:38:56;;;;;;;2.73;1.73;;;19.60;29.60;;;;;;4922081;29;20467;-71
2022/05/14 08:41:24;;;;;;;3.03;1.40;;;19.60;29.50;;;;;;4940197;29;20476;-71
2022/05/14 08:43:55;;;;;;;1.90;1.57;;;19.80;29.70;;;;;;4954979;29;20457;-71
2022/05/14 08:46:25;;;;;;;4.03;1.70;;;19.80;28.80;;;;;;4951973;28;20512;-72
2022/05/14 08:48:54;;;;;;;3.03;1.83;;;19.90;29.00;;;;;;4938864;28;20846;-71
2022/05/14 08:51:24;;;;;;;3.33;1.50;;;20.00;29.40;;;;;;4917563;29;20447;-72
2022/05/14 08:53:51;;;;;;;3.13;1.80;;;20.00;29.70;;;;;;4917881;29;20487;-71
2022/05/14 08:56:29;;;;;;;4.07;1.80;;;20.10;29.40;;;;;;4936576;29;20496;-71
2022/05/14 08:59:13;;;;;;;3.60;1.23;;;20.30;29.10;;;;;;4937261;29;20458;-70
2022/05/14 09:01:44;;;;;;;5.47;1.80;;;20.40;29.30;;;;;;4937584;29;20495;-72
2022/05/14 09:04:13;;;;;;;6.53;1.70;;;20.60;29.30;;;;;;4941804;29;20528;-71
2022/05/14 09:06:41;;;;;;;3.83;1.90;;;20.50;29.80;;;;;;4941676;28;20531;-70
2022/05/14 09:09:09;;;;;;;1.50;1.40;;;20.50;29.20;;;;;;4937976;29;20441;-71
2022/05/14 09:11:40;;;;;;;2.43;1.70;;;20.60;29.30;;;;;;4947989;29;20512;-71
2022/05/14 09:14:20;;;;;;;3.00;1.60;;;20.70;28.10;;;;;;4941598;28;20479;-70
2022/05/14 09:16:50;;;;;;;3.53;1.67;;;20.60;27.80;;;;;;4923883;29;20465;-72
2022/05/14 09:19:20;;;;;;;2.47;1.60;;;20.50;28.00;;;;;;4936341;29;20444;-72
2022/05/14 09:21:51;;;;;;;2.90;1.30;;;20.40;28.30;;;;;;4940863;29;20464;-72
2022/05/14 09:24:24;;;;;;;5.33;1.60;;;20.40;28.00;;;;;;4946685;29;20436;-71
2022/05/14 09:26:52;;;;;;;4.60;1.60;;;20.50;28.20;;;;;;4946419;29;20486;-70
2022/05/14 09:29:24;;;;;;;4.33;1.30;;;20.70;27.60;;;;;;4941449;29;20501;-72
2022/05/14 09:31:55;;;;;;;4.27;1.17;;;20.80;27.40;;;;;;4939923;29;20460;-71
2022/05/14 09:34:24;;;;;;;3.50;1.63;;;20.80;27.30;;;;;;4941631;29;20723;-70
2022/05/14 09:36:52;;;;;;;5.13;1.77;;;20.80;27.60;;;;;;4945820;29;20490;-73
2022/05/14 09:39:21;;;;;;;3.60;1.50;;;21.10;27.40;;;;;;4943420;29;20462;-71
2022/05/14 09:41:51;;;;;;;2.47;1.43;;;21.30;26.30;;;;;;4940444;29;20494;-72
2022/05/14 09:44:22;;;;;;;3.50;1.67;;;21.40;26.20;;;;;;4942569;29;20435;-71
2022/05/14 09:46:49;;;;;;;3.77;1.50;;;21.60;26.00;;;;;;4942633;29;20539;-72
2022/05/14 09:49:24;;;;;;;2.60;1.30;;;21.70;25.50;;;;;;4941181;29;20432;-70
2022/05/14 09:51:54;;;;;;;2.77;1.33;;;21.60;25.50;;;;;;4943142;29;20470;-71
2022/05/14 09:54:24;;;;;;;3.37;1.50;;;21.60;24.80;;;;;;4943156;29;20503;-70
2022/05/14 09:57:21;;;;;;;3.50;1.67;;;21.60;25.10;;;;;;4943280;29;20498;-71
2022/05/14 10:00:12;;;;;;;3.93;1.70;;;21.50;24.90;;;;;;4926071;29;20440;-71
2022/05/14 10:03:19;;;;;;;4.33;1.90;;;21.60;24.70;;;;;;4938164;29;20526;-71
2022/05/14 10:05:59;;;;;;;5.60;1.70;;;21.70;24.80;;;;;;4921449;29;20814;-71
2022/05/14 10:08:46;;;;;;;2.60;1.43;;;21.60;23.70;;;;;;4942707;29;20461;-71
2022/05/14 10:11:17;;;;;;;1.63;1.17;;;21.80;24.00;;;;;;4941764;29;20551;-71
2022/05/14 10:13:50;;;;;;;3.27;1.33;;;22.00;22.20;;;;;;4947895;29;20437;-70
2022/05/14 10:16:24;;;;;;;3.33;1.50;;;22.10;22.20;;;;;;4947146;29;20460;-69
2022/05/14 10:19:08;;;;;;;2.57;1.43;;;22.20;22.30;;;;;;4938966;29;20554;-71
2022/05/14 10:21:47;;;;;;;3.87;1.50;;;22.20;23.40;;;;;;4938982;29;20495;-71
2022/05/14 10:27:34;;;;;;;2.60;1.63;;;22.20;23.30;;;;;;4935266;29;20494;-70
2022/05/14 10:30:14;;;;;;;1.80;1.63;;;22.00;22.10;;;;;;4934613;29;20429;-70
2022/05/14 10:32:42;;;;;;;2.70;1.50;;;22.00;22.10;;;;;;4932809;29;20434;-70
2022/05/14 10:35:15;;;;;;;5.67;1.30;;;22.10;22.80;;;;;;4934665;29;20508;-70
2022/05/14 10:37:49;;;;;;;4.03;1.43;;;22.10;22.20;;;;;;4936190;29;20482;-70
2022/05/14 10:40:21;;;;;;;2.00;1.40;;;22.10;22.20;;;;;;4931604;29;20497;-71
2022/05/14 10:42:59;;;;;;;1.23;1.07;;;22.10;22.20;;;;;;4944261;29;20467;-71
2022/05/14 10:45:33;;;;;;;1.60;1.30;;;22.40;20.40;;;;;;4933249;29;20460;-71
2022/05/14 10:48:07;;;;;;;2.97;1.60;;;22.60;20.80;;;;;;4936422;29;20952;-71
2022/05/14 10:50:34;;;;;;;1.83;1.60;;;22.80;21.20;;;;;;4936559;29;20462;-72
2022/05/14 10:53:08;;;;;;;4.40;1.70;;;22.90;21.80;;;;;;4936170;29;20461;-72
2022/05/14 10:55:45;;;;;;;3.20;1.50;;;23.10;21.20;;;;;;4934260;29;20469;-72
2022/05/14 10:58:22;;;;;;;1.60;1.47;;;22.90;21.70;;;;;;4916689;29;20503;-70
2022/05/14 11:01:02;;;;;;;1.90;1.07;;;23.00;20.30;;;;;;4934365;29;20454;-71
2022/05/14 11:03:32;;;;;;;3.00;1.40;;;23.10;19.90;;;;;;4936554;29;20552;-71
2022/05/14 11:06:13;;;;;;;1.50;1.40;;;23.20;19.70;;;;;;4931793;29;20988;-71
2022/05/14 11:08:44;;;;;;;2.60;1.53;;;23.40;18.50;;;;;;4942620;28;20464;-70
2022/05/14 11:11:21;;;;;;;2.50;1.40;;;23.50;17.40;;;;;;4938689;29;20944;-72
2022/05/14 11:14:01;;;;;;;1.03;1.00;;;23.70;16.20;;;;;;4949884;29;20512;-70
2022/05/14 11:16:43;;;;;;;2.70;1.23;;;23.50;17.20;;;;;;4950521;29;20469;-71
2022/05/14 11:19:11;;;;;;;2.30;1.47;;;23.30;17.70;;;;;;4936249;29;20446;-72
2022/05/14 11:21:41;;;;;;;2.00;1.37;;;23.30;18.20;;;;;;4947282;29;20448;-71
2022/05/14 11:24:12;;;;;;;4.00;1.17;;;23.50;18.10;;;;;;4955017;29;20835;-70
2022/05/14 11:26:49;;;;;;;3.90;1.27;;;23.60;18.20;;;;;;4953492;29;20948;-71
2022/05/14 11:29:20;;;;;;;1.93;1.30;;;23.60;18.60;;;;;;4952117;29;20795;-70
2022/05/14 11:32:01;;;;;;;4.93;1.60;;;23.60;19.00;;;;;;4952302;29;20447;-73
2022/05/14 11:34:31;;;;;;;3.13;1.20;;;23.80;18.20;;;;;;4967587;29;20465;-72
2022/05/14 11:37:01;;;;;;;2.50;1.17;;;23.90;17.60;;;;;;4955644;28;20985;-71
2022/05/14 11:39:36;;;;;;;2.97;1.30;;;24.00;17.70;;;;;;4950154;29;20514;-70
2022/05/14 11:42:26;;;;;;;2.63;1.20;;;23.80;17.90;;;;;;4943510;29;20562;-71
2022/05/14 11:44:57;;;;;;;3.83;1.60;;;23.50;17.70;;;;;;4941268;29;20469;-71
2022/05/14 11:48:03;;;;;;;2.97;1.53;;;23.50;18.20;;;;;;4939121;29;20927;-69
2022/05/14 11:50:34;;;;;;;2.00;1.50;;;23.50;18.60;;;;;;4930145;29;21005;-72
2022/05/14 11:53:18;;;;;;;3.30;1.63;;;23.40;18.90;;;;;;4928011;29;20940;-72
2022/05/14 11:58:26;;;;;;;2.23;1.33;;;23.30;19.30;;;;;;4941346;29;20885;-74
2022/05/14 12:00:55;;;;;;;1.80;1.27;;;23.40;19.30;;;;;;4949419;29;20576;-75
2022/05/14 12:03:24;;;;;;;1.70;1.43;;;23.70;17.90;;;;;;4958321;28;20520;-75
2022/05/14 12:05:56;;;;;;;2.50;1.10;;;23.90;17.90;;;;;;4955325;28;20465;-76
2022/05/14 12:09:02;;;;;;;2.50;1.20;;;24.10;15.50;;;;;;4939943;29;20471;-73
2022/05/14 12:11:35;;;;;;;3.43;1.40;;;24.00;17.20;;;;;;4938547;29;20462;-74
2022/05/14 12:14:08;;;;;;;2.63;1.10;;;23.80;18.60;;;;;;4936708;29;20458;-74
2022/05/14 12:16:38;;;;;;;2.50;1.70;;;23.60;19.10;;;;;;4938005;29;20473;-75
2022/05/14 12:19:12;;;;;;;2.30;1.10;;;23.50;18.70;;;;;;4937509;29;20478;-75
2022/05/14 12:21:39;;;;;;;2.10;1.17;;;23.50;19.00;;;;;;4937682;29;21017;-75
2022/05/14 12:24:17;;;;;;;1.90;1.20;;;23.70;17.80;;;;;;4938222;29;20494;-73
2022/05/14 12:26:45;;;;;;;2.27;1.30;;;23.80;17.50;;;;;;4936572;29;20836;-75
2022/05/14 12:29:22;;;;;;;1.93;1.40;;;23.80;17.90;;;;;;4937885;29;20458;-74
2022/05/14 12:34:43;;;;;;;2.20;1.30;;;24.00;17.20;;;;;;4937422;29;20582;-74
2022/05/14 12:37:20;;;;;;;1.80;1.17;;;23.80;16.90;;;;;;4937582;29;20449;-75
2022/05/14 12:39:50;;;;;;;3.43;1.20;;;24.10;15.10;;;;;;4940310;29;20470;-74
2022/05/14 12:42:23;;;;;;;3.30;1.17;;;24.10;15.10;;;;;;4937390;29;20493;-75
2022/05/14 12:44:54;;;;;;;3.13;1.50;;;24.30;15.70;;;;;;4937634;29;20552;-73
2022/05/14 12:47:30;;;;;;;5.60;1.60;;;24.30;15.30;;;;;;4937643;29;20481;-73
2022/05/14 12:49:57;;;;;;;3.40;1.50;;;24.30;16.50;;;;;;4937738;29;20454;-73
2022/05/14 12:52:28;;;;;;;2.20;1.40;;;24.50;15.40;;;;;;4938662;29;20881;-74
2022/05/14 12:54:59;;;;;;;3.03;1.53;;;24.60;14.20;;;;;;4938301;29;20488;-74
2022/05/14 12:57:27;;;;;;;2.10;1.70;;;24.60;14.90;;;;;;4939301;29;20497;-74
2022/05/14 12:59:55;;;;;;;2.00;1.20;;;24.80;15.70;;;;;;4938457;29;20966;-73
2022/05/14 13:02:27;;;;;;;1.90;1.53;;;24.80;15.60;;;;;;4939230;29;20465;-75
2022/05/14 13:04:59;;;;;;;1.63;1.53;;;24.80;16.90;;;;;;4937830;29;20565;-74
2022/05/14 13:07:28;;;;;;;5.90;1.70;;;24.80;17.10;;;;;;4937616;29;20485;-74
2022/05/14 13:09:56;;;;;;;2.43;1.37;;;25.00;17.50;;;;;;4939160;29;20518;-74
2022/05/14 13:12:27;;;;;;;4.70;1.43;;;25.20;16.90;;;;;;4939219;29;20458;-74
2022/05/14 13:14:58;;;;;;;2.20;1.40;;;25.20;16.90;;;;;;4938066;29;20827;-74
2022/05/14 13:17:32;;;;;;;1.63;1.53;;;24.90;16.10;;;;;;4937966;29;20478;-73
2022/05/14 13:19:59;;;;;;;7.50;1.47;;;24.80;16.80;;;;;;4937222;29;20958;-73
2022/05/14 13:22:35;;;;;;;3.13;1.67;;;24.80;16.50;;;;;;4937839;29;20522;-76
2022/05/14 13:25:23;;;;;;;2.50;1.37;;;24.90;15.70;;;;;;4939880;29;20465;-74
2022/05/14 13:27:50;;;;;;;1.63;1.20;;;25.10;15.80;;;;;;4936885;29;20505;-74